Time;durP1;ratioP1;P1;durP2;ratioP2;P2;SDS_P1;SDS_P2;PMS_P1;PMS_P2;Temp;Humidity;BMP_temperature;BMP_pressure;BME280_temperature;BME280_humidity;BME280_pressure;Samples;Min_cycle;Max_cycle;Signal;HPM_P1;HPM_P2
2021/04/30 00:01:18;;;;;;;11.33;9.93;;;7.60;28.50;8.70;100078.00;;;;5037929;28;20466;-82
2021/04/30 00:03:47;;;;;;;11.90;10.73;;;7.50;28.30;8.70;100070.00;;;;5036813;28;20472;-81
2021/04/30 00:06:15;;;;;;;13.60;12.20;;;7.50;28.50;8.70;100060.00;;;;5026895;28;20476;-81
2021/04/30 00:08:42;;;;;;;14.13;12.85;;;7.50;28.20;8.90;100066.00;;;;5022741;28;20418;-81
2021/04/30 00:11:10;;;;;;;13.85;12.65;;;7.60;28.70;52.70;160561.00;;;;5018485;28;20539;-81
2021/04/30 00:13:39;;;;;;;13.87;12.57;;;7.80;28.70;9.00;99897.00;;;;5022917;28;20452;-82
2021/04/30 00:16:08;;;;;;;14.00;12.73;;;7.70;28.00;217.30;160557.00;;;;5021586;28;20502;-81
2021/04/30 00:18:36;;;;;;;13.68;12.38;;;7.70;28.20;217.30;160551.00;;;;5021416;28;20419;-81
2021/04/30 00:21:06;;;;;;;14.50;13.20;;;7.60;29.00;9.00;68234.00;;;;5035045;28;20422;-81
2021/04/30 00:23:34;;;;;;;15.70;14.20;;;7.60;28.80;8.90;100058.00;;;;5012371;28;20496;-81
2021/04/30 00:26:05;;;;;;;15.70;14.20;;;7.60;28.70;8.90;100052.00;;;;5023269;28;20417;-81
2021/04/30 00:28:33;;;;;;;15.20;13.80;;;7.70;28.40;8.90;100052.00;;;;5019696;28;20497;-81
2021/04/30 00:31:01;;;;;;;17.23;15.55;;;7.70;28.20;8.90;100069.00;;;;5022059;28;20430;-82
2021/04/30 00:33:28;;;;;;;16.00;14.50;;;7.70;27.40;8.90;100066.00;;;;5027343;28;20892;-82
2021/04/30 00:35:57;;;;;;;17.77;16.08;;;7.80;27.40;8.90;100056.00;;;;5028623;28;20414;-81
2021/04/30 00:38:25;;;;;;;18.25;16.45;;;7.80;27.40;8.90;100064.00;;;;5031052;28;20782;-82
2021/04/30 00:40:53;;;;;;;18.40;16.50;;;7.80;27.30;217.30;160545.00;;;;5053629;28;20415;-82
2021/04/30 00:43:21;;;;;;;17.90;16.20;;;7.80;27.60;8.90;100065.00;;;;5030484;28;20756;-82
2021/04/30 00:45:52;;;;;;;18.13;16.52;;;7.80;27.30;8.90;100062.00;;;;5048000;28;20412;-81
2021/04/30 00:48:20;;;;;;;18.85;17.05;;;7.80;27.50;9.00;100058.00;;;;5035220;28;20431;-81
2021/04/30 00:50:49;;;;;;;19.13;17.13;;;7.80;27.70;9.00;68253.00;;;;5026512;28;20479;-81
2021/04/30 00:53:16;;;;;;;19.20;17.30;;;7.80;27.40;9.00;68234.00;;;;5029514;28;20538;-82
2021/04/30 00:55:44;;;;;;;19.38;17.27;;;7.90;27.50;217.30;160525.00;;;;5031307;28;20423;-82
2021/04/30 00:58:12;;;;;;;19.05;17.35;;;7.90;27.20;8.90;100077.00;;;;5043322;28;20422;-81
2021/04/30 01:00:40;;;;;;;18.03;16.13;;;7.80;27.20;217.30;160424.00;;;;5046277;28;20206;-82
2021/04/30 01:03:09;;;;;;;19.83;17.77;;;7.70;28.00;8.80;100060.00;;;;5035430;28;20432;-82
2021/04/30 01:05:38;;;;;;;19.00;17.20;;;7.60;28.40;8.80;100065.00;;;;5037171;28;20413;-81
2021/04/30 01:08:06;;;;;;;19.60;17.80;;;7.70;28.10;8.90;100067.00;;;;5024277;28;21473;-81
2021/04/30 01:10:35;;;;;;;19.55;17.73;;;7.70;28.00;8.90;100066.00;;;;5020263;28;20433;-80
2021/04/30 01:13:03;;;;;;;19.42;17.55;;;7.70;27.90;8.80;68218.00;;;;5022167;28;20423;-81
2021/04/30 01:15:31;;;;;;;19.75;18.05;;;7.80;28.00;8.90;100065.00;;;;5021408;28;20498;-81
2021/04/30 01:18:00;;;;;;;20.42;18.33;;;7.60;28.10;52.70;160478.00;;;;5023060;28;20473;-81
2021/04/30 01:20:28;;;;;;;20.35;18.55;;;7.60;28.10;8.80;100052.00;;;;5020473;28;20524;-80
2021/04/30 01:22:56;;;;;;;22.42;20.05;;;7.60;28.40;8.80;100076.00;;;;5017851;28;20415;-80
2021/04/30 01:25:26;;;;;;;20.50;18.50;;;7.50;28.60;8.80;100073.00;;;;5018385;28;20444;-81
2021/04/30 01:27:54;;;;;;;19.57;17.67;;;7.50;29.00;8.70;100082.00;;;;5009684;28;20418;-80
2021/04/30 01:30:26;;;;;;;19.17;17.27;;;7.50;28.70;8.80;100078.00;;;;5013531;28;20427;-79
2021/04/30 01:32:54;;;;;;;19.30;17.50;;;7.60;28.20;8.70;100083.00;;;;5013861;28;20428;-80
2021/04/30 01:35:24;;;;;;;19.80;17.80;;;7.60;28.30;8.80;100091.00;;;;5017756;28;20950;-80
2021/04/30 01:37:54;;;;;;;20.33;18.20;;;7.60;28.40;8.80;100102.00;;;;5008410;28;20518;-81
2021/04/30 01:40:26;;;;;;;19.65;17.35;;;7.70;28.70;217.30;160430.00;;;;5015045;28;20504;-80
2021/04/30 01:43:01;;;;;;;20.08;18.08;;;7.60;28.10;217.30;160446.00;;;;5024876;28;20477;-82
2021/04/30 01:45:33;;;;;;;19.40;17.50;;;7.60;28.10;217.30;160440.00;;;;5016686;28;21295;-80
2021/04/30 01:48:03;;;;;;;19.20;17.40;;;7.60;28.80;8.80;100106.00;;;;5008688;28;20438;-80
2021/04/30 01:50:33;;;;;;;20.17;16.47;;;7.60;28.40;8.50;68140.00;;;;5017382;28;20453;-80
2021/04/30 01:53:01;;;;;;;18.67;16.98;;;7.50;29.70;8.60;100097.00;;;;5031427;28;20932;-80
2021/04/30 01:55:31;;;;;;;17.57;15.87;;;7.50;29.00;8.40;100114.00;;;;5017050;28;20672;-80
2021/04/30 01:57:59;;;;;;;18.75;16.85;;;7.40;29.00;8.60;100100.00;;;;5008735;28;20924;-80
2021/04/30 02:00:28;;;;;;;18.95;16.98;;;7.40;29.20;8.70;100109.00;;;;5024450;28;20412;-80
2021/04/30 02:02:58;;;;;;;19.27;17.48;;;7.50;29.60;8.70;100108.00;;;;5006461;28;20428;-80
2021/04/30 02:05:28;;;;;;;20.02;18.20;;;7.50;28.90;8.60;100101.00;;;;5009756;28;20427;-80
2021/04/30 02:08:00;;;;;;;18.43;16.67;;;7.60;28.20;217.30;160297.00;;;;5020342;28;20260;-80
2021/04/30 02:10:29;;;;;;;17.37;15.63;;;7.50;28.40;8.30;100093.00;;;;5022728;28;20476;-80
2021/04/30 02:12:57;;;;;;;17.47;15.67;;;7.30;28.90;8.20;100092.00;;;;5018735;28;20536;-80
2021/04/30 02:15:27;;;;;;;19.67;17.73;;;7.30;29.00;217.30;160198.00;;;;5022048;28;20457;-80
2021/04/30 02:17:55;;;;;;;18.33;16.43;;;7.30;29.50;8.20;100118.00;;;;5026558;28;20493;-80
2021/04/30 02:20:24;;;;;;;18.40;16.60;;;7.20;30.00;8.20;100105.00;;;;5017482;28;20448;-80
2021/04/30 02:22:53;;;;;;;18.50;16.60;;;7.20;30.50;8.10;100113.00;;;;5017022;28;20456;-80
2021/04/30 02:25:22;;;;;;;18.47;16.53;;;7.10;30.50;8.10;100113.00;;;;5038520;28;20480;-80
2021/04/30 02:27:53;;;;;;;18.93;17.23;;;7.10;31.50;8.10;100108.00;;;;5037760;28;20485;-81
2021/04/30 02:30:22;;;;;;;20.10;17.90;;;7.10;32.60;8.10;100120.00;;;;5053801;28;20429;-79
2021/04/30 02:32:52;;;;;;;17.63;15.77;;;7.00;31.80;217.30;160151.00;;;;5050718;28;20453;-79
2021/04/30 02:35:23;;;;;;;19.73;17.73;;;7.00;32.30;8.00;100129.00;;;;5038121;28;20434;-80
2021/04/30 02:37:51;;;;;;;18.43;16.63;;;7.00;32.30;8.00;100117.00;;;;5037489;28;20489;-78
2021/04/30 02:40:23;;;;;;;19.70;17.90;;;7.00;32.40;8.00;100121.00;;;;5020905;28;20488;-79
2021/04/30 02:42:52;;;;;;;20.70;17.40;;;7.00;33.00;8.00;100132.00;;;;5016859;28;20553;-78
2021/04/30 02:45:20;;;;;;;17.20;15.53;;;6.90;34.00;7.90;100123.00;;;;5009254;28;20469;-79
2021/04/30 02:47:49;;;;;;;16.77;15.00;;;6.80;34.60;7.90;100130.00;;;;5006046;28;20485;-79
2021/04/30 02:50:19;;;;;;;18.80;16.80;;;6.80;35.40;7.90;100118.00;;;;5015214;28;20457;-79
2021/04/30 02:52:48;;;;;;;18.50;16.30;;;6.80;35.70;7.90;68002.00;;;;5014721;28;20966;-79
2021/04/30 02:55:17;;;;;;;17.00;15.20;;;6.80;35.50;7.90;100116.00;;;;5031290;28;20472;-78
2021/04/30 02:57:45;;;;;;;22.93;16.63;;;6.80;36.10;7.80;100124.00;;;;5013564;28;20510;-78
2021/04/30 03:00:14;;;;;;;18.67;16.77;;;6.70;36.20;7.70;67966.00;;;;5013747;28;20985;-79
2021/04/30 03:02:42;;;;;;;17.73;15.43;;;6.70;36.20;7.70;100126.00;;;;5030279;28;20441;-79
2021/04/30 03:05:13;;;;;;;18.10;16.30;;;6.60;37.10;7.70;100127.00;;;;5014602;28;20477;-79
2021/04/30 03:07:41;;;;;;;18.60;15.30;;;6.60;37.10;7.70;100124.00;;;;5023393;28;20798;-79
2021/04/30 03:10:10;;;;;;;18.30;16.40;;;6.50;37.20;7.60;100124.00;;;;5017596;28;20813;-79
2021/04/30 03:12:38;;;;;;;18.27;16.20;;;6.40;37.50;7.50;100128.00;;;;5017202;28;20841;-79
2021/04/30 03:15:07;;;;;;;17.13;15.30;;;6.40;37.90;7.50;100108.00;;;;5025745;28;20491;-79
2021/04/30 03:17:36;;;;;;;17.03;15.23;;;6.40;38.60;7.50;100106.00;;;;5012638;28;20573;-79
2021/04/30 03:20:04;;;;;;;17.70;15.87;;;6.30;38.50;7.40;67901.00;;;;5019086;28;20814;-78
2021/04/30 03:22:32;;;;;;;18.00;15.53;;;6.30;39.40;7.40;100103.00;;;;5018699;28;20453;-78
2021/04/30 03:24:59;;;;;;;18.57;16.63;;;6.30;39.60;7.40;100095.00;;;;5018953;28;20500;-79
2021/04/30 03:27:28;;;;;;;18.00;16.13;;;6.20;40.30;7.30;100101.00;;;;5040218;28;20473;-81
2021/04/30 03:29:56;;;;;;;23.23;17.33;;;6.10;40.80;7.30;100099.00;;;;5023261;28;20469;-80
2021/04/30 03:32:24;;;;;;;18.60;16.70;;;6.10;42.00;7.20;100093.00;;;;5024257;28;20544;-81
2021/04/30 03:34:54;;;;;;;19.40;16.70;;;6.00;43.10;7.20;100109.00;;;;5024075;28;20458;-81
2021/04/30 03:37:21;;;;;;;21.60;18.20;;;6.00;43.90;7.20;100113.00;;;;5037830;28;20457;-82
2021/04/30 03:39:49;;;;;;;18.70;16.80;;;6.00;43.90;7.20;100122.00;;;;5039225;28;20547;-81
2021/04/30 03:42:18;;;;;;;20.37;16.93;;;5.90;44.30;7.10;100101.00;;;;5039086;28;20469;-81
2021/04/30 03:44:45;;;;;;;20.00;16.77;;;5.80;44.80;7.00;100115.00;;;;5033703;28;20496;-81
2021/04/30 03:47:13;;;;;;;18.77;16.77;;;5.80;45.10;7.10;100118.00;;;;5031924;28;20476;-82
2021/04/30 03:49:41;;;;;;;20.97;18.87;;;5.80;45.40;7.00;100130.00;;;;5029094;28;20457;-79
2021/04/30 03:52:09;;;;;;;18.67;16.67;;;5.80;46.10;7.00;100116.00;;;;5035111;28;20566;-79
2021/04/30 03:54:37;;;;;;;20.13;18.03;;;5.70;46.20;7.00;100118.00;;;;5043686;28;20541;-79
2021/04/30 03:57:04;;;;;;;21.13;18.90;;;5.70;47.00;6.90;100128.00;;;;5029215;28;20458;-80
2021/04/30 03:59:32;;;;;;;18.57;16.47;;;5.60;47.60;6.90;100115.00;;;;5037711;28;20448;-80
2021/04/30 04:01:59;;;;;;;18.93;16.93;;;5.70;47.70;7.00;100117.00;;;;5029343;28;20967;-81
2021/04/30 04:04:28;;;;;;;23.77;19.17;;;5.70;47.70;7.00;100114.00;;;;5013950;28;20575;-80
2021/04/30 04:06:56;;;;;;;20.10;18.00;;;5.70;47.70;7.00;100120.00;;;;5021302;28;20507;-80
2021/04/30 04:09:24;;;;;;;21.80;19.00;;;5.80;47.80;7.00;100114.00;;;;5017391;28;20484;-81
2021/04/30 04:11:52;;;;;;;23.07;19.30;;;5.70;50.20;6.90;100138.00;;;;5035563;28;20939;-81
2021/04/30 04:14:19;;;;;;;24.30;19.37;;;5.60;52.40;6.90;100131.00;;;;5033256;28;20488;-81
2021/04/30 04:16:47;;;;;;;23.10;20.70;;;5.40;54.20;6.90;100144.00;;;;5025505;28;20546;-83
2021/04/30 04:19:17;;;;;;;23.40;19.57;;;5.50;54.00;6.90;100147.00;;;;5023551;28;21164;-80
2021/04/30 04:21:45;;;;;;;21.50;18.10;;;5.50;53.10;6.90;100148.00;;;;5016871;28;20469;-79
2021/04/30 04:24:16;;;;;;;25.17;19.90;;;5.60;52.30;52.70;159661.00;;;;5020648;28;20915;-82
2021/04/30 04:26:44;;;;;;;28.53;19.40;;;5.60;51.60;7.00;100152.00;;;;5019610;28;20485;-79
2021/04/30 04:29:12;;;;;;;25.57;21.57;;;5.60;51.40;7.00;100160.00;;;;5020506;28;20451;-80
2021/04/30 04:31:39;;;;;;;23.17;18.40;;;5.60;54.20;52.70;159677.00;;;;5020057;28;21068;-80
2021/04/30 04:34:07;;;;;;;34.70;21.90;;;5.50;54.70;7.00;100157.00;;;;5024783;28;20458;-81
2021/04/30 04:36:35;;;;;;;28.47;19.70;;;5.70;55.20;7.00;100138.00;;;;5037255;28;20482;-80
2021/04/30 04:39:03;;;;;;;28.90;21.97;;;5.60;55.70;7.00;100146.00;;;;5029441;28;20462;-80
2021/04/30 04:41:30;;;;;;;32.10;20.83;;;5.60;55.50;7.00;100141.00;;;;5021945;28;20483;-80
2021/04/30 04:43:59;;;;;;;30.70;20.50;;;5.40;56.80;7.00;100167.00;;;;5019506;28;20468;-81
2021/04/30 04:46:26;;;;;;;31.50;21.47;;;5.40;56.50;7.00;100151.00;;;;5012228;28;20568;-81
2021/04/30 04:48:54;;;;;;;27.10;21.43;;;5.40;56.80;7.10;100151.00;;;;5018990;28;20469;-81
2021/04/30 04:51:22;;;;;;;30.20;21.90;;;5.50;57.80;217.30;159770.00;;;;5018718;28;20501;-82
2021/04/30 04:53:50;;;;;;;28.70;21.83;;;5.60;57.10;217.30;159786.00;;;;5023202;28;20453;-81
2021/04/30 04:56:25;;;;;;;22.63;19.87;;;5.60;56.50;217.30;159807.00;;;;5031309;28;20457;-82
2021/04/30 04:58:57;;;;;;;21.37;19.07;;;5.70;55.90;217.30;159819.00;;;;5055318;28;20457;-81
2021/04/30 05:01:26;;;;;;;26.00;20.83;;;5.80;55.80;217.30;159881.00;;;;5031382;28;20441;-80
2021/04/30 05:03:54;;;;;;;27.23;19.90;;;5.90;55.30;7.50;100164.00;;;;5026869;28;20473;-80
2021/04/30 05:06:22;;;;;;;31.53;21.83;;;5.90;55.30;7.60;100159.00;;;;5024638;28;20768;-80
2021/04/30 05:08:49;;;;;;;24.07;20.90;;;5.90;55.50;7.60;100175.00;;;;5023988;28;20472;-81
2021/04/30 05:11:17;;;;;;;27.03;20.70;;;5.80;55.10;7.60;100156.00;;;;5024244;28;20458;-80
2021/04/30 05:13:44;;;;;;;28.30;20.47;;;5.90;55.50;7.80;100177.00;;;;5037472;28;20488;-81
2021/04/30 05:16:13;;;;;;;23.30;20.80;;;6.00;54.80;52.70;160023.00;;;;5022520;28;20480;-80
2021/04/30 05:18:41;;;;;;;27.90;23.47;;;6.10;52.90;7.80;100188.00;;;;5026427;28;20442;-80
2021/04/30 05:21:11;;;;;;;33.97;22.53;;;6.20;51.60;7.80;100192.00;;;;5020650;28;20485;-80
2021/04/30 05:23:39;;;;;;;28.90;22.10;;;6.30;51.40;7.90;100192.00;;;;5023759;28;20598;-81
2021/04/30 05:26:07;;;;;;;26.87;19.63;;;6.40;50.20;8.10;100184.00;;;;5014437;28;20519;-81
2021/04/30 05:28:36;;;;;;;25.60;21.07;;;6.50;50.30;8.20;100182.00;;;;5018953;28;21130;-80
2021/04/30 05:31:04;;;;;;;29.00;19.87;;;6.50;51.40;8.10;100178.00;;;;5023973;28;20476;-81
2021/04/30 05:33:33;;;;;;;23.63;20.20;;;6.60;48.40;8.10;100183.00;;;;5023301;28;20453;-81
2021/04/30 05:36:01;;;;;;;24.63;20.77;;;6.60;47.10;217.30;160212.00;;;;5019728;28;20507;-80
2021/04/30 05:38:28;;;;;;;23.97;21.47;;;6.70;47.60;8.30;68102.00;;;;5023794;28;20461;-81
2021/04/30 05:40:56;;;;;;;23.30;19.77;;;6.80;46.00;8.30;100194.00;;;;5036787;28;20467;-81
2021/04/30 05:43:23;;;;;;;23.87;20.27;;;6.80;46.60;8.20;100194.00;;;;5032555;28;20449;-81
2021/04/30 05:45:51;;;;;;;23.37;20.93;;;6.80;45.90;8.30;100196.00;;;;5034314;28;20472;-81
2021/04/30 05:48:20;;;;;;;24.90;20.80;;;6.70;46.80;8.30;100193.00;;;;5039731;28;20441;-82
2021/04/30 05:50:48;;;;;;;32.00;22.00;;;6.70;46.40;8.20;100202.00;;;;5041431;28;20461;-80
2021/04/30 05:53:17;;;;;;;21.50;19.20;;;6.70;45.50;8.10;68056.00;;;;5048010;28;20465;-81
2021/04/30 05:55:44;;;;;;;28.90;24.07;;;6.70;46.20;8.20;68075.00;;;;5040779;28;20520;-82
2021/04/30 05:58:11;;;;;;;32.17;21.30;;;6.70;46.30;8.40;100189.00;;;;5058949;28;20477;-81
2021/04/30 06:00:39;;;;;;;33.23;23.07;;;6.80;47.10;8.60;100189.00;;;;5036956;28;20825;-81
2021/04/30 06:03:07;;;;;;;26.27;21.90;;;7.00;46.10;217.30;160335.00;;;;5038704;28;20456;-81
2021/04/30 06:05:35;;;;;;;35.70;22.70;;;7.00;45.30;217.30;160389.00;;;;5035448;28;21085;-79
2021/04/30 06:08:03;;;;;;;25.77;22.23;;;7.10;45.80;8.70;100192.00;;;;5037297;28;20520;-81
2021/04/30 06:10:31;;;;;;;24.13;21.63;;;7.20;44.20;9.00;100183.00;;;;5025740;28;20476;-81
2021/04/30 06:13:04;;;;;;;26.97;21.33;;;7.40;43.50;9.30;100189.00;;;;5030040;28;20461;-82
2021/04/30 06:15:32;;;;;;;26.13;23.13;;;7.70;41.70;9.80;100188.00;;;;5032764;28;20516;-82
2021/04/30 06:18:00;;;;;;;24.07;21.30;;;7.90;41.10;10.20;100200.00;;;;5035313;28;20517;-80
2021/04/30 06:20:28;;;;;;;23.73;20.30;;;8.30;40.20;10.50;100190.00;;;;5037959;28;20520;-80
2021/04/30 06:22:55;;;;;;;22.60;20.20;;;8.40;36.60;10.70;100196.00;;;;5038928;28;20482;-82
2021/04/30 06:25:23;;;;;;;21.00;17.90;;;8.60;33.90;10.90;100169.00;;;;5042973;28;20474;-82
2021/04/30 06:27:54;;;;;;;21.90;18.60;;;8.80;31.40;11.00;100180.00;;;;5028943;28;20548;-81
2021/04/30 06:30:21;;;;;;;22.07;19.77;;;9.00;29.70;11.10;100159.00;;;;5031153;28;20467;-81
2021/04/30 06:32:49;;;;;;;20.90;18.70;;;9.30;28.40;217.30;161674.00;;;;5041156;28;20509;-82
2021/04/30 06:35:17;;;;;;;22.80;18.57;;;9.50;27.40;11.80;68886.00;;;;5039982;28;20453;-80
2021/04/30 06:37:44;;;;;;;24.00;17.73;;;9.80;24.60;12.30;100154.00;;;;5024952;28;20499;-80
2021/04/30 06:40:12;;;;;;;21.27;17.47;;;10.00;21.90;12.30;100154.00;;;;5020310;28;20449;-80
2021/04/30 06:42:40;;;;;;;25.20;18.70;;;10.20;21.50;12.10;100154.00;;;;5023012;28;20872;-80
2021/04/30 06:45:09;;;;;;;19.80;17.70;;;10.20;21.00;12.30;100159.00;;;;5019888;28;20473;-80
2021/04/30 06:47:38;;;;;;;25.20;18.70;;;10.30;20.10;12.50;100154.00;;;;5012950;28;20492;-80
2021/04/30 06:50:07;;;;;;;19.70;17.60;;;10.50;17.60;12.70;100157.00;;;;5021417;28;20450;-80
2021/04/30 06:52:35;;;;;;;20.27;17.70;;;10.70;17.30;12.80;100162.00;;;;5020895;28;21160;-80
2021/04/30 06:55:03;;;;;;;21.10;17.37;;;10.80;17.00;13.10;100133.00;;;;5020476;28;20457;-81
2021/04/30 06:57:42;;;;;;;19.00;16.97;;;10.80;17.00;13.10;100161.00;;;;5020510;28;20512;-80
2021/04/30 07:00:14;;;;;;;23.23;17.03;;;10.90;16.60;12.90;69124.00;;;;5020014;28;21564;-80
2021/04/30 07:02:41;;;;;;;20.13;18.00;;;10.80;15.90;12.80;100165.00;;;;5020284;28;20958;-81
2021/04/30 07:05:11;;;;;;;17.47;15.77;;;10.80;16.40;12.80;100160.00;;;;5027652;28;20865;-81
2021/04/30 07:07:39;;;;;;;20.20;15.27;;;10.60;15.70;12.60;69057.00;;;;5012507;28;20512;-81
2021/04/30 07:10:08;;;;;;;17.57;15.67;;;10.50;14.60;12.60;100161.00;;;;5018962;28;20847;-80
2021/04/30 07:12:37;;;;;;;17.73;15.00;;;10.50;14.60;12.50;100164.00;;;;5026158;28;20441;-81
2021/04/30 07:15:07;;;;;;;16.80;15.20;;;10.50;13.30;12.50;100157.00;;;;5030535;28;20450;-81
2021/04/30 07:17:36;;;;;;;17.13;15.33;;;10.50;13.50;12.70;100159.00;;;;5030351;28;20464;-80
2021/04/30 07:20:05;;;;;;;23.00;16.93;;;10.50;13.60;12.70;100146.00;;;;5037286;28;20477;-81
2021/04/30 07:22:33;;;;;;;21.20;15.97;;;10.60;14.00;217.30;162235.00;;;;5037095;28;20465;-81
2021/04/30 07:25:01;;;;;;;23.70;18.00;;;10.80;14.20;13.10;100143.00;;;;5021075;28;20519;-82
2021/04/30 07:27:29;;;;;;;16.40;14.70;;;10.90;14.90;13.20;100153.00;;;;5022384;28;21032;-82
2021/04/30 07:29:57;;;;;;;18.23;16.43;;;11.00;13.90;13.20;100158.00;;;;5020366;28;20572;-81
2021/04/30 07:32:25;;;;;;;16.80;14.77;;;11.10;13.90;13.20;100167.00;;;;5016878;28;20454;-82
2021/04/30 07:34:55;;;;;;;16.87;14.27;;;11.10;14.70;13.20;100162.00;;;;5028858;28;20468;-81
2021/04/30 07:37:23;;;;;;;18.43;15.43;;;11.10;12.60;13.40;100172.00;;;;5029508;28;20482;-81
2021/04/30 07:39:51;;;;;;;18.17;15.10;;;11.20;13.20;13.20;100176.00;;;;5026057;28;20986;-82
2021/04/30 07:42:19;;;;;;;17.13;15.37;;;11.20;12.50;13.40;100164.00;;;;5024461;28;20464;-83
2021/04/30 07:44:49;;;;;;;25.93;15.50;;;11.30;12.50;217.30;162557.00;;;;5042412;28;20586;-81
2021/04/30 07:47:17;;;;;;;16.90;15.00;;;11.50;12.60;13.80;100168.00;;;;5020259;28;20485;-82
2021/04/30 07:49:45;;;;;;;21.43;14.60;;;11.60;12.70;13.90;100166.00;;;;5018290;28;20468;-81
2021/04/30 07:52:15;;;;;;;17.67;15.80;;;11.70;11.50;13.80;100166.00;;;;5020753;28;20451;-81
2021/04/30 07:54:42;;;;;;;19.80;15.70;;;11.70;11.40;13.90;100169.00;;;;5030066;28;20460;-81
2021/04/30 07:57:10;;;;;;;18.20;15.53;;;11.70;11.80;13.90;100173.00;;;;5022264;28;20461;-81
2021/04/30 07:59:38;;;;;;;18.40;14.90;;;11.70;11.80;14.00;100171.00;;;;5040212;28;20520;-81
2021/04/30 08:02:07;;;;;;;19.90;17.20;;;11.80;12.00;217.30;162801.00;;;;5048285;28;20471;-80
2021/04/30 08:04:36;;;;;;;15.30;13.67;;;11.90;12.20;217.30;162826.00;;;;5033047;28;20472;-81
2021/04/30 08:07:04;;;;;;;18.83;15.87;;;11.90;12.20;14.10;100183.00;;;;5027077;28;20469;-81
2021/04/30 08:09:32;;;;;;;17.73;15.87;;;11.90;13.10;14.20;100171.00;;;;5040745;28;21018;-81
2021/04/30 08:12:00;;;;;;;20.13;15.90;;;11.90;12.30;14.40;100161.00;;;;5029575;28;20868;-81
2021/04/30 08:14:30;;;;;;;18.67;16.13;;;12.00;12.70;14.40;100170.00;;;;5027343;28;20482;-80
2021/04/30 08:16:58;;;;;;;17.63;15.80;;;12.20;12.70;14.50;100163.00;;;;5033449;28;20461;-82
2021/04/30 08:19:26;;;;;;;17.47;15.73;;;12.30;12.70;14.70;69517.00;;;;5028782;28;20489;-81
2021/04/30 08:21:54;;;;;;;20.70;15.93;;;12.30;10.60;14.50;100169.00;;;;5041585;28;20521;-81
2021/04/30 08:24:22;;;;;;;20.10;16.63;;;12.30;10.80;14.60;69505.00;;;;5045298;28;20466;-80
2021/04/30 08:26:51;;;;;;;19.93;16.83;;;12.20;11.50;14.50;100166.00;;;;5025576;28;20475;-82
2021/04/30 08:29:19;;;;;;;18.10;16.30;;;12.20;11.50;14.70;69523.00;;;;5029162;28;20450;-82
2021/04/30 08:31:46;;;;;;;21.57;17.90;;;12.20;10.10;14.70;69535.00;;;;5021390;28;20456;-81
2021/04/30 08:34:14;;;;;;;19.27;17.23;;;12.20;10.80;14.80;100192.00;;;;5028455;28;20472;-83
2021/04/30 08:36:42;;;;;;;19.67;17.77;;;12.30;10.40;14.90;100200.00;;;;5029537;28;20527;-81
2021/04/30 08:39:10;;;;;;;18.17;16.27;;;12.30;10.40;14.90;100202.00;;;;5025496;28;20454;-80
2021/04/30 08:41:38;;;;;;;18.97;16.90;;;12.40;10.60;14.80;100205.00;;;;5027088;28;20532;-83
2021/04/30 08:44:08;;;;;;;20.40;18.20;;;12.30;10.00;15.10;100194.00;;;;5023412;28;21366;-81
2021/04/30 08:46:36;;;;;;;18.57;16.77;;;12.30;10.50;15.20;100205.00;;;;5025900;28;20484;-82
2021/04/30 08:49:06;;;;;;;18.83;16.90;;;12.40;10.10;15.30;100207.00;;;;5044080;28;20465;-79
2021/04/30 08:51:34;;;;;;;19.67;17.60;;;12.40;9.50;15.50;100196.00;;;;5027332;28;20457;-80
2021/04/30 08:54:04;;;;;;;17.47;15.63;;;12.50;10.00;15.60;100196.00;;;;5017458;28;20455;-79
2021/04/30 08:56:32;;;;;;;17.13;15.43;;;12.50;9.10;15.70;100189.00;;;;5026928;28;20471;-80
2021/04/30 08:59:01;;;;;;;16.90;15.20;;;12.60;8.80;15.80;100201.00;;;;5038073;28;20456;-79
2021/04/30 09:01:30;;;;;;;18.23;15.90;;;12.60;8.30;15.90;100197.00;;;;5023734;28;20460;-80
2021/04/30 09:03:58;;;;;;;17.67;14.77;;;12.70;8.80;15.80;100205.00;;;;5039977;28;20529;-80
2021/04/30 09:06:34;;;;;;;19.23;15.93;;;12.90;8.30;16.00;100196.00;;;;5022084;28;20535;-80
2021/04/30 09:09:09;;;;;;;16.63;14.90;;;13.10;7.10;16.20;100195.00;;;;5024680;28;20460;-80
2021/04/30 09:11:39;;;;;;;19.77;16.90;;;13.20;5.60;16.40;100200.00;;;;5023618;28;20474;-81
2021/04/30 09:14:30;;;;;;;17.67;15.93;;;13.40;5.30;16.90;100186.00;;;;5015939;28;20512;-81
2021/04/30 09:17:06;;;;;;;18.10;15.17;;;13.50;4.80;17.20;100183.00;;;;5039549;28;21160;-81
2021/04/30 09:19:45;;;;;;;17.30;15.50;;;13.70;4.60;17.30;100192.00;;;;5052961;28;20506;-82
2021/04/30 09:22:12;;;;;;;17.17;15.37;;;13.90;4.00;17.60;100179.00;;;;5029306;28;20481;-81
2021/04/30 09:24:41;;;;;;;17.43;15.63;;;14.20;3.50;17.90;100194.00;;;;5029448;28;20477;-80
2021/04/30 09:27:09;;;;;;;18.20;16.07;;;14.40;2.00;18.00;100201.00;;;;5034522;28;20561;-80
2021/04/30 09:29:37;;;;;;;17.43;13.63;;;14.50;1.30;18.00;100209.00;;;;5022023;28;20526;-80
2021/04/30 09:32:11;;;;;;;15.70;14.20;;;14.80;1.00;17.80;100200.00;;;;5025593;28;20468;-82
2021/04/30 09:34:41;;;;;;;16.33;14.70;;;14.70;1.00;17.50;100205.00;;;;5024019;28;20457;-81
2021/04/30 09:37:13;;;;;;;15.30;13.80;;;14.60;1.00;17.20;100203.00;;;;5039773;28;20530;-82
2021/04/30 09:39:54;;;;;;;16.40;14.80;;;14.30;1.00;16.70;100207.00;;;;5023585;28;20449;-81
2021/04/30 09:42:24;;;;;;;19.03;15.13;;;14.00;1.00;16.50;100198.00;;;;5021567;28;20449;-80
2021/04/30 09:44:54;;;;;;;17.53;15.83;;;13.80;2.20;16.30;100202.00;;;;5023637;28;20473;-82
2021/04/30 09:47:25;;;;;;;16.63;14.83;;;13.60;1.60;16.50;100199.00;;;;5024873;28;20942;-80
2021/04/30 09:49:56;;;;;;;16.70;15.00;;;13.60;1.80;16.60;100188.00;;;;5021085;28;20462;-82
2021/04/30 09:52:25;;;;;;;16.83;15.23;;;13.60;1.90;16.90;100201.00;;;;5014388;28;20468;-81
2021/04/30 09:54:55;;;;;;;14.43;13.03;;;13.60;1.70;16.90;100201.00;;;;5022630;28;20459;-81
2021/04/30 09:57:24;;;;;;;16.43;14.77;;;13.80;1.50;16.90;100195.00;;;;5030453;28;20492;-81
2021/04/30 09:59:56;;;;;;;14.93;13.50;;;13.90;1.00;16.50;100191.00;;;;5021952;28;20537;-81
2021/04/30 10:02:26;;;;;;;16.30;14.57;;;13.80;1.00;16.40;100193.00;;;;5015365;28;20516;-81
2021/04/30 10:04:57;;;;;;;14.50;12.97;;;13.70;1.00;16.30;100186.00;;;;5021933;28;20478;-81
2021/04/30 10:07:30;;;;;;;18.13;14.30;;;13.60;1.20;16.30;100194.00;;;;5020451;28;20501;-81
2021/04/30 10:10:09;;;;;;;14.80;12.97;;;13.60;1.50;16.40;100184.00;;;;5013393;28;20551;-81
2021/04/30 10:12:39;;;;;;;15.53;13.93;;;13.60;2.70;16.30;100186.00;;;;5020539;28;20468;-82
2021/04/30 10:15:11;;;;;;;14.80;13.40;;;13.60;2.40;16.40;100178.00;;;;5024825;28;20457;-81
2021/04/30 10:17:43;;;;;;;15.37;12.53;;;13.70;2.30;16.40;100168.00;;;;5043178;28;20510;-80
2021/04/30 10:20:12;;;;;;;14.73;12.80;;;13.80;1.00;16.40;100164.00;;;;5029130;28;20475;-81
2021/04/30 10:22:43;;;;;;;14.23;12.33;;;13.80;1.00;16.50;100164.00;;;;5023376;28;20826;-81
2021/04/30 10:25:21;;;;;;;14.93;13.33;;;13.90;1.00;16.40;100152.00;;;;5037397;28;20484;-81
2021/04/30 10:27:51;;;;;;;13.77;12.40;;;13.80;1.00;16.40;100161.00;;;;5025871;28;20513;-81
2021/04/30 10:30:24;;;;;;;14.30;12.80;;;13.80;1.00;16.70;100154.00;;;;5022320;28;20470;-81
2021/04/30 10:32:59;;;;;;;15.57;13.97;;;14.10;1.00;16.70;100162.00;;;;5019672;28;20476;-81
2021/04/30 10:35:31;;;;;;;15.17;13.57;;;14.20;1.00;16.90;100163.00;;;;5011137;28;20468;-81
2021/04/30 10:38:07;;;;;;;14.63;12.97;;;14.20;1.00;17.00;100157.00;;;;5012299;28;21037;-81
2021/04/30 10:40:36;;;;;;;17.83;13.93;;;14.20;1.00;17.10;100147.00;;;;5021339;28;20491;-81
2021/04/30 10:43:21;;;;;;;14.47;12.80;;;14.10;1.00;17.40;100147.00;;;;5020042;28;20460;-81
2021/04/30 10:46:04;;;;;;;14.03;12.57;;;14.50;1.00;17.50;100148.00;;;;5021967;28;20986;-81
2021/04/30 10:48:36;;;;;;;15.63;13.97;;;14.60;1.00;17.70;100133.00;;;;5030371;28;20464;-80
2021/04/30 10:51:13;;;;;;;14.80;13.17;;;14.60;1.00;17.60;100143.00;;;;5040076;28;20533;-80